• Join FlightAware (Why Join?)
  • Login
  • US Flag 
09:16PM EST


 

Airport Tracker/Info


-or-


 

Live Flight TrackerFlight Track Log ✈ N201FR ✈ 01-May-2013 ✈ KDCA - KDEN

Flight Track Log - Related Links

Times and Time Zones

All times are in EDT time to prevent confusion due to time zone crossing. See the N201FR flight status page for this flight to view local times or setup timezone preferences in your user account.

Time Position Orientation Groundspeed Altitude Reporting Facility
EDT Latitude Longitude Course Direction KTS MPH feet Rate Location/Type
01:33PM 38.8833 -77.0500 311° West 159 183 1,600  Level Potomac TRACON
01:34PM 38.9167 -77.1000 311° West 210 242 2,600 1,380 Climbing Potomac TRACON
01:35PM 38.9833 -77.1667 322° Northwest 273 314 4,600 2,160 Climbing Potomac TRACON
01:36PM 39.0000 -77.2500 284° West 288 331 6,800 2,400 Climbing Potomac TRACON
01:37PM 38.9833 -77.3667 260° West 296 341 9,500 1,860 Climbing Potomac TRACON
01:39PM 38.9553 -77.5803 260° West 340 391 12,500 1,680 Climbing Washington Center
01:40PM 38.9389 -77.6972 260° West 364 419 14,500 1,920 Climbing Washington Center
01:41PM 38.9153 -77.8406 258° West 376 433 16,400 1,680 Climbing Washington Center
01:42PM 38.8919 -77.9786 258° West 382 440 18,000 1,380 Climbing Washington Center
01:43PM 38.8683 -78.1139 257° West 394 453 19,300 1,440 Climbing Washington Center
01:44PM 38.8528 -78.2547 262° West 399 459 20,900 1,440 Climbing Washington Center
01:45PM 38.8514 -78.4011 269° West 404 465 22,200 1,320 Climbing Washington Center
01:46PM 38.8500 -78.5478 269° West 409 471 23,600 1,260 Climbing Washington Center
01:47PM 38.8506 -78.6944 270° West 409 471 24,800 1,080 Climbing Washington Center
01:48PM 38.8486 -78.8461 269° West 420 483 25,800 1,020 Climbing Washington Center
01:49PM 38.8464 -78.9981 269° West 425 489 26,900 960 Climbing Washington Center
01:50PM 38.8419 -79.1525 268° West 430 495 27,800 840 Climbing Washington Center
01:51PM 38.8414 -79.3097 270° West 436 502 28,700 840 Climbing Washington Center
01:52PM 38.8386 -79.4642 269° West 441 507 29,500 960 Climbing Washington Center
01:53PM 38.8353 -79.6292 269° West 447 514 30,600 960 Climbing Washington Center
01:54PM 38.8303 -79.7703 267° West 453 521 31,500 780 Climbing Washington Center
01:55PM 38.8269 -79.9272 268° West 453 521 32,200 720 Climbing Washington Center
01:57PM 38.8167 -80.2492 268° West 439 505 33,800 540 Climbing Indianapolis Center
01:58PM 38.8119 -80.4047 268° West 437 503 34,000 60 Climbing Indianapolis Center
01:59PM 38.8092 -80.5600 269° West 436 502 34,000  Level Indianapolis Center
02:00PM 38.8167 -80.7139 274° West 435 501 34,000  Level Indianapolis Center
02:01PM 38.8236 -80.8703 273° West 438 504 34,100  Climbing Indianapolis Center
02:02PM 38.8294 -81.0247 273° West 437 503 34,000 -60 Descending Indianapolis Center
02:03PM 38.8367 -81.2089 273° West 433 498 34,000  Level Indianapolis Center
02:04PM 38.8422 -81.3636 273° West 438 504 34,000  Level Indianapolis Center
02:05PM 38.8481 -81.5175 273° West 441 507 34,000  Level Indianapolis Center
02:06PM 38.8528 -81.6692 272° West 436 502 34,000  Level Indianapolis Center
02:07PM 38.8586 -81.8536 272° West 434 499 34,000  Level Indianapolis Center
02:08PM 38.8633 -82.0067 272° West 433 498 34,000  Level Indianapolis Center
02:09PM 38.8672 -82.1561 272° West 423 487 34,000  Level Indianapolis Center
02:10PM 38.8708 -82.3075 272° West 424 488 34,000  Level Indianapolis Center
02:11PM 38.8750 -82.4581 272° West 424 488 34,000  Level Indianapolis Center
02:12PM 38.8794 -82.6081 272° West 420 483 34,000  Level Indianapolis Center
02:13PM 38.8828 -82.7578 272° West 421 484 34,000  Level Indianapolis Center
02:14PM 38.8867 -82.9389 272° West 421 484 34,000  Level Indianapolis Center
02:15PM 38.8892 -83.0894 271° West 423 487 34,000  Level Indianapolis Center
02:16PM 38.8931 -83.2419 272° West 417 480 34,000 -60 Level Indianapolis Center
02:17PM 38.8961 -83.3914 272° West 415 478 33,900  Descending Indianapolis Center
02:18PM 38.8981 -83.5433 271° West 419 482 34,000  Climbing Indianapolis Center
02:19PM 38.9000 -83.6925 271° West 415 478 34,000  Level Indianapolis Center
02:20PM 38.9028 -83.8439 271° West 419 482 34,000  Level Indianapolis Center
02:21PM 38.9039 -83.9958 271° West 420 483 34,000  Level Indianapolis Center
02:22PM 38.9067 -84.1472 271° West 421 484 34,000  Level Indianapolis Center
02:23PM 38.9083 -84.3231 271° West 420 483 34,000  Level Indianapolis Center
02:24PM 38.9100 -84.4764 271° West 423 487 34,000  Level Indianapolis Center
02:25PM 38.9108 -84.6286 270° West 423 487 34,000  Level Indianapolis Center
02:26PM 38.9122 -84.7814 271° West 423 487 34,000  Level Indianapolis Center
02:28PM 38.9125 -84.9303 270° West 420 483 34,000  Level Indianapolis Center
02:29PM 38.9139 -85.0797 271° West 418 481 34,000  Level Indianapolis Center
02:30PM 38.9136 -85.2292 270° West 417 480 34,000  Level Indianapolis Center
02:31PM 38.9144 -85.4039 270° West 417 480 34,000  Level Indianapolis Center
02:32PM 38.9147 -85.5542 270° West 417 480 34,000  Level Indianapolis Center
02:33PM 38.9142 -85.7053 270° West 420 483 34,000  Level Indianapolis Center
02:34PM 38.9139 -85.8547 270° West 417 480 34,000  Level Indianapolis Center
02:35PM 38.9133 -86.0036 270° West 416 479 34,000  Level Indianapolis Center
02:36PM 38.9122 -86.1556 270° West 419 482 34,000  Level Indianapolis Center
02:37PM 38.9122 -86.3086 270° West 423 487 34,000  Level Indianapolis Center
02:38PM 38.9103 -86.4842 269° West 420 483 34,000  Level Indianapolis Center
02:39PM 38.9094 -86.6231 270° West 421 484 34,100 240 Climbing Indianapolis Center
02:40PM 38.9083 -86.7742 270° West 424 488 34,600 660 Climbing Indianapolis Center
02:41PM 38.9058 -86.9250 269° West 424 488 35,500 660 Climbing Indianapolis Center
02:42PM 38.9036 -87.1022 269° West 416 479 36,000 240 Climbing Indianapolis Center
02:43PM 38.9019 -87.2506 269° West 416 479 36,000  Level Indianapolis Center
02:44PM 38.9000 -87.3983 269° West 416 479 36,000  Level Indianapolis Center
02:45PM 38.8969 -87.5442 269° West 412 474 36,000  Level Indianapolis Center
02:46PM 38.8939 -87.6928 269° West 416 479 36,000  Level Indianapolis Center
02:47PM 38.8914 -87.8403 269° West 414 476 36,000  Level Indianapolis Center
02:48PM 38.8875 -88.0181 268° West 417 480 36,000  Level Indianapolis Center
02:49PM 38.8842 -88.1672 268° West 417 480 36,000  Level Indianapolis Center
02:50PM 38.8803 -88.3175 268° West 420 483 36,000  Level Indianapolis Center
02:51PM 38.8778 -88.4086 268° West 420 483 36,000  Level Kansas City Center
02:52PM 38.8744 -88.5578 268° West 418 481 36,000  Level Kansas City Center
02:53PM 38.8675 -88.7119 267° West 415 478 36,000  Level Kansas City Center
02:54PM 38.8664 -88.8583 269° West 412 474 36,000  Level Kansas City Center
02:55PM 38.8606 -89.0358 268° West 416 479 36,000  Level Kansas City Center
02:56PM 38.8567 -89.1817 268° West 412 474 36,000  Level Kansas City Center
02:57PM 38.8517 -89.3397 268° West 413 475 36,000  Level Kansas City Center
02:58PM 38.8472 -89.4853 268° West 413 475 36,000  Level Kansas City Center
02:59PM 38.8422 -89.6450 268° West 417 480 36,000  Level Kansas City Center
03:00PM 38.8369 -89.7717 267° West 420 483 36,000  Level Kansas City Center
03:01PM 38.8297 -89.9531 267° West 424 488 36,000  Level Kansas City Center
03:02PM 38.8253 -90.1008 268° West 422 486 36,000  Level Kansas City Center
03:03PM 38.8206 -90.2539 268° West 425 489 36,000  Level Kansas City Center
03:04PM 38.8161 -90.4086 268° West 431 496 36,000  Level Kansas City Center
03:05PM 38.8072 -90.5608 266° West 428 493 36,000  Level Kansas City Center
03:06PM 38.7986 -90.7275 266° West 420 483 36,000  Level Kansas City Center
03:07PM 38.7925 -90.8767 267° West 422 486 36,000  Level Kansas City Center
03:08PM 38.7858 -91.0269 267° West 424 488 36,000  Level Kansas City Center
03:10PM 38.7789 -91.1775 267° West 425 489 36,000  Level Kansas City Center
03:11PM 38.7706 -91.3600 267° West 429 494 36,000  Level Kansas City Center
03:12PM 38.7631 -91.5100 266° West 426 490 36,000  Level Kansas City Center
03:13PM 38.7547 -91.6597 266° West 424 488 36,000  Level Kansas City Center
03:14PM 38.7453 -91.8250 266° West 423 487 36,000  Level Kansas City Center
03:15PM 38.7375 -91.9747 266° West 422 486 36,000  Level Kansas City Center
03:16PM 38.7286 -92.1244 266° West 421 484 36,000  Level Kansas City Center
03:17PM 38.7197 -92.2736 266° West 422 486 36,000  Level Kansas City Center
03:18PM 38.7100 -92.4231 265° West 423 487 36,000  Level Kansas City Center
03:19PM 38.6994 -92.6028 266° West 423 487 36,000  Level Kansas City Center
03:20PM 38.6903 -92.7547 266° West 425 489 36,000  Level Kansas City Center
03:21PM 38.6803 -92.9083 265° West 431 496 36,000  Level Kansas City Center
03:22PM 38.6708 -93.0631 266° West 435 501 36,000  Level Kansas City Center
03:23PM 38.6600 -93.2194 265° West 440 506 36,000  Level Kansas City Center
03:24PM 38.6492 -93.3753 265° West 441 507 36,000  Level Kansas City Center
03:25PM 38.6375 -93.5639 266° West 443 510 36,000  Level Kansas City Center
03:26PM 38.6258 -93.7225 265° West 447 514 36,000  Level Kansas City Center
03:27PM 38.6153 -93.8797 265° West 446 513 36,000  Level Kansas City Center
03:28PM 38.6047 -94.0311 265° West 446 513 36,000  Level Kansas City Center
03:29PM 38.5911 -94.2058 264° West 443 510 36,000  Level Kansas City Center
03:30PM 38.5806 -94.3536 265° West 438 504 36,000  Level Kansas City Center
03:31PM 38.5667 -94.5258 264° West 436 502 36,000  Level Kansas City Center
03:32PM 38.5556 -94.6731 265° West 434 499 36,000  Level Kansas City Center
03:33PM 38.5422 -94.8444 264° West 433 498 36,000  Level Kansas City Center
03:34PM 38.5300 -94.9922 264° West 434 499 36,000  Level Kansas City Center
03:35PM 38.5178 -95.1375 264° West 431 496 36,000 -720 Level Kansas City Center
03:36PM 38.5042 -95.3067 264° West 428 493 34,600 -1,020 Descending Kansas City Center
03:37PM 38.4917 -95.4514 264° West 426 490 34,000 -300 Descending Kansas City Center
03:38PM 38.4772 -95.6228 264° West 430 495 34,000  Level Kansas City Center
03:40PM 38.4647 -95.7667 264° West 424 488 34,000  Level Kansas City Center
03:41PM 38.4500 -95.9342 264° West 425 489 34,000  Level Kansas City Center
03:42PM 38.4367 -96.0783 263° West 427 491 34,000  Level Kansas City Center
03:43PM 38.4206 -96.2444 263° West 424 488 34,000  Level Kansas City Center
03:44PM 38.4078 -96.3889 264° West 426 490 34,000  Level Kansas City Center
03:45PM 38.3944 -96.5297 263° West 427 491 34,000  Level Kansas City Center
03:46PM 38.3808 -96.6764 263° West 420 483 34,000  Level Kansas City Center
03:47PM 38.3636 -96.8522 263° West 417 480 34,000  Level Kansas City Center
03:48PM 38.3492 -96.9989 263° West 418 481 34,000  Level Kansas City Center
03:49PM 38.3353 -97.1444 263° West 416 479 34,000  Level Kansas City Center
03:50PM 38.3203 -97.2922 263° West 420 483 34,000  Level Kansas City Center
03:51PM 38.3047 -97.4375 262° West 418 481 34,000  Level Kansas City Center
03:52PM 38.2875 -97.6111 263° West 414 476 34,000  Level Kansas City Center
03:53PM 38.2722 -97.7544 262° West 413 475 34,000  Level Kansas City Center
03:54PM 38.2569 -97.8961 262° West 410 472 34,000  Level Kansas City Center
03:55PM 38.2419 -98.0369 262° West 407 468 34,000  Level Kansas City Center
03:56PM 38.2269 -98.1775 262° West 406 467 34,000  Level Kansas City Center
03:57PM 38.2089 -98.3458 262° West 405 466 34,000  Level Kansas City Center
03:58PM 38.1922 -98.4869 261° West 405 466 34,000  Level Kansas City Center
03:59PM 38.1778 -98.6289 263° West 407 468 34,000  Level Kansas City Center
04:00PM 38.1606 -98.7703 261° West 406 467 34,000  Level Kansas City Center
04:01PM 38.1447 -98.9100 262° West 403 464 34,000  Level Kansas City Center
04:02PM 38.1292 -99.0506 262° West 402 463 34,000  Level Kansas City Center
04:03PM 38.1089 -99.2181 261° West 401 461 34,000  Level Kansas City Center
04:04PM 38.0917 -99.3581 261° West 402 463 34,000  Level Kansas City Center
04:05PM 38.0753 -99.4964 261° West 400 460 34,000  Level Kansas City Center
04:06PM 38.0564 -99.6458 261° West 395 455 34,000  Level Kansas City Center
04:07PM 38.0414 -99.7753 262° West 390 449 34,000  Level Kansas City Center
04:08PM 38.0214 -99.9258 260° West 389 448 34,000  Level Kansas City Center
04:10PM 38.0053 -100.0558 261° West 390 449 34,000  Level Kansas City Center
04:11PM 37.9867 -100.2064 261° West 389 448 34,000  Level Kansas City Center
04:12PM 37.9700 -100.3347 261° West 387 445 34,000  Level Kansas City Center
04:13PM 37.9508 -100.4836 261° West 385 443 34,000  Level Kansas City Center
04:14PM 37.9336 -100.6117 260° West 387 445 34,000  Level Kansas City Center
04:15PM 37.9400 -100.7614 273° West 389 448 34,000  Level Kansas City Center
04:16PM 37.9806 -100.8839 293° West 394 453 34,000  Level Kansas City Center
04:16PM 38.0053 -100.9450 297° West 403 464 34,000  Level Denver Center
04:17PM 38.0511 -101.0675 295° West 404 465 34,000  Level Denver Center
04:18PM 38.1058 -101.2094 296° West 403 464 34,000  Level Denver Center
04:19PM 38.1506 -101.3286 296° West 392 451 34,000  Level Denver Center
04:20PM 38.1964 -101.4494 296° West 397 457 34,000  Level Denver Center
04:21PM 38.2644 -101.5836 303° West 406 467 34,000  Level Denver Center
04:22PM 38.3228 -101.7008 302° West 410 472 34,000  Level Denver Center
04:23PM 38.3908 -101.8369 303° West 409 471 34,100  Climbing Denver Center
04:24PM 38.4472 -101.9528 302° West 402 463 34,000 -60 Descending Denver Center
04:25PM 38.5131 -102.0881 302° West 401 461 34,000  Level Denver Center
04:26PM 38.5697 -102.2028 302° West 401 461 34,000  Level Denver Center
04:27PM 38.6353 -102.3372 302° West 399 459 34,000  Level Denver Center
04:28PM 38.6906 -102.4511 302° West 395 455 34,000  Level Denver Center
04:29PM 38.7553 -102.5842 302° West 394 453 34,000  Level Denver Center
04:31PM 38.8125 -102.6997 302° West 400 460 34,000 -120 Level Denver Center
04:32PM 38.8692 -102.8167 302° West 404 465 33,800 -1,320 Descending Denver Center
04:33PM 38.9386 -102.9639 301° West 407 468 31,400 -2,220 Descending Denver Center
04:34PM 38.9981 -103.0886 302° West 406 467 29,300 -1,920 Descending Denver Center
04:35PM 39.0575 -103.2100 302° West 401 461 27,500 -1,800 Descending Denver Center
04:36PM 39.1136 -103.3292 301° West 388 447 25,700 -1,740 Descending Denver Center
04:37PM 39.1678 -103.4461 301° West 378 435 24,000 -1,680 Descending Denver Center
04:38PM 39.2211 -103.5592 301° West 369 425 22,300 -1,500 Descending Denver Center
04:39PM 39.2653 -103.6525 301° West 363 418 21,000 -1,620 Descending Denver Center
04:40PM 39.3281 -103.7872 301° West 372 428 19,000 -1,500 Descending Denver Center
04:41PM 39.3786 -103.8961 301° West 362 417 17,900 -1,260 Descending Denver Center
04:42PM 39.3983 -104.0136 282° West 311 358 16,500 -1,680 Descending Denver Center
04:43PM 39.3939 -104.1272 267° West 296 341 14,100 -1,500 Descending Denver Center
04:44PM 39.3864 -104.2611 266° West 302 348 13,100 -540 Descending Denver Center
04:45PM 39.3814 -104.3533 266° West 262 302 13,000 -420 Descending Denver Center
04:46PM 39.4003 -104.4472 285° West 252 290 12,300 -840 Descending Denver Center
04:47PM 39.4211 -104.5289 288° West 240 276 11,300 -900 Descending Denver Center
04:48PM 39.4403 -104.6103 287° West 238 274 10,500 -660 Descending Denver Center
04:49PM 39.5011 -104.6522 332° Northwest 234 269 10,000 -300 Descending Denver Center
04:50PM 39.5611 -104.6636 352° North 214 246 10,000 -120 Level Denver Center
04:51PM 39.6169 -104.6631 360° North 203 234 9,800 -540 Descending Denver Center
04:52PM 39.6581 -104.6622 North 177 204 8,900 -1,020 Descending Denver Center
04:53PM 39.7183 -104.6622 360° North 174 200 7,700 -1,020 Descending Denver Center
04:54PM 39.7636 -104.6617 North 166 191 6,800 -840 Descending Denver Center
04:55PM 39.8036 -104.6608 North 137 158 6,000 -720 Descending Denver Center
04:56PM 39.8408 -104.6619 359° North 130 150 5,400 -600 Descending Denver Center
04:58PM 39.8500 -104.6667 348° North  Level FlightAware Approximate
05:05PM 39.8617 -104.6732 348° North  Level Estimated